Time;durP1;ratioP1;P1;durP2;ratioP2;P2;SDS_P1;SDS_P2;PMS_P1;PMS_P2;Temp;Humidity;BMP_temperature;BMP_pressure;BME280_temperature;BME280_humidity;BME280_pressure;Samples;Min_cycle;Max_cycle;Signal;HPM_P1;HPM_P2
2021/09/02 00:00:00;;;;;;;4.93;4.30;;;20.70;65.80;;;;;;5095075;28;20174;-60
2021/09/02 00:02:25;;;;;;;5.05;4.25;;;20.70;65.80;;;;;;5095161;28;20177;-61
2021/09/02 00:04:50;;;;;;;4.65;4.03;;;20.60;65.80;;;;;;5095389;28;20213;-61
2021/09/02 00:07:16;;;;;;;5.50;4.90;;;20.70;65.80;;;;;;5094825;28;20174;-61
2021/09/02 00:09:41;;;;;;;4.50;4.07;;;20.70;65.80;;;;;;5095622;28;20197;-60
2021/09/02 00:12:07;;;;;;;4.57;4.18;;;20.70;65.80;;;;;;5095474;28;20224;-60
2021/09/02 00:14:32;;;;;;;5.43;4.75;;;20.60;65.80;;;;;;5094207;28;20766;-60
2021/09/02 00:16:58;;;;;;;4.70;3.60;;;20.70;65.80;;;;;;5095405;28;20166;-60
2021/09/02 00:19:23;;;;;;;4.85;4.35;;;20.60;65.80;;;;;;5094775;28;20222;-61
2021/09/02 00:21:49;;;;;;;5.18;4.50;;;20.70;65.80;;;;;;5094458;28;20181;-60
2021/09/02 00:24:14;;;;;;;4.53;4.13;;;20.70;65.90;;;;;;5095230;28;20210;-61
2021/09/02 00:26:42;;;;;;;5.10;4.32;;;20.70;65.80;;;;;;5094838;28;20174;-60
2021/09/02 00:29:07;;;;;;;4.40;4.00;;;20.60;65.80;;;;;;5094933;28;20637;-60
2021/09/02 00:31:33;;;;;;;4.80;4.40;;;20.60;65.80;;;;;;5094752;28;20303;-60
2021/09/02 00:33:58;;;;;;;4.95;4.38;;;20.60;65.80;;;;;;5094340;28;20172;-61
2021/09/02 00:36:24;;;;;;;4.75;4.00;;;20.60;65.90;;;;;;5094568;28;20202;-61
2021/09/02 00:38:49;;;;;;;4.93;4.43;;;20.60;65.80;;;;;;5094994;28;20174;-61
2021/09/02 00:41:15;;;;;;;5.22;4.53;;;20.60;65.80;;;;;;5094160;28;20192;-60
2021/09/02 00:43:41;;;;;;;4.50;4.10;;;20.60;65.80;;;;;;5094385;28;20667;-60
2021/09/02 00:46:10;;;;;;;4.82;4.38;;;20.60;65.90;;;;;;5094963;28;20178;-61
2021/09/02 00:48:36;;;;;;;5.40;4.80;;;20.60;65.90;;;;;;5093652;28;20170;-61
2021/09/02 00:51:01;;;;;;;4.45;4.07;;;20.60;65.90;;;;;;5094820;28;20639;-61
2021/09/02 00:53:30;;;;;;;4.65;4.25;;;20.60;65.90;;;;;;5094661;28;20166;-61
2021/09/02 00:55:56;;;;;;;6.60;4.43;;;20.60;65.90;;;;;;5094107;28;20178;-61
2021/09/02 00:58:21;;;;;;;5.07;4.20;;;20.60;65.90;;;;;;5110135;28;20177;-61
2021/09/02 01:00:47;;;;;;;4.07;3.65;;;20.60;66.00;;;;;;5094512;28;20243;-61
2021/09/02 01:03:13;;;;;;;5.00;4.50;;;20.60;66.00;;;;;;5093756;28;20678;-61
2021/09/02 01:05:38;;;;;;;5.70;4.30;;;20.60;66.00;;;;;;5093840;28;20224;-61
2021/09/02 01:08:05;;;;;;;4.70;4.30;;;20.60;65.90;;;;;;5094532;28;20613;-61
2021/09/02 01:10:30;;;;;;;4.95;3.92;;;20.60;66.00;;;;;;5093423;28;20181;-60
2021/09/02 01:12:56;;;;;;;4.93;4.40;;;20.60;66.00;;;;;;5094196;28;20174;-61
2021/09/02 01:15:23;;;;;;;5.13;4.20;;;20.60;66.00;;;;;;5094106;28;20173;-60
2021/09/02 01:17:50;;;;;;;5.40;4.30;;;20.60;66.00;;;;;;5093374;28;20182;-61
2021/09/02 01:20:17;;;;;;;5.28;4.57;;;20.60;66.00;;;;;;5094132;28;20278;-60
2021/09/02 01:22:46;;;;;;;5.03;4.53;;;20.60;66.00;;;;;;5093759;28;20597;-60
2021/09/02 01:25:13;;;;;;;4.75;4.35;;;20.60;66.00;;;;;;5093398;28;20220;-60
2021/09/02 01:27:41;;;;;;;5.20;4.70;;;20.60;66.10;;;;;;5093773;28;21029;-60
2021/09/02 01:30:08;;;;;;;5.43;4.40;;;20.60;66.10;;;;;;5093219;28;20185;-61
2021/09/02 01:32:35;;;;;;;4.85;4.32;;;20.60;66.10;;;;;;5093420;28;20193;-61
2021/09/02 01:35:01;;;;;;;5.30;4.20;;;20.60;66.10;;;;;;5093970;28;20302;-62
2021/09/02 01:37:27;;;;;;;4.90;4.40;;;20.60;66.10;;;;;;5092879;28;20177;-61
2021/09/02 01:39:53;;;;;;;4.88;4.38;;;20.60;66.10;;;;;;5109319;28;20575;-60
2021/09/02 01:42:19;;;;;;;5.72;4.22;;;20.60;66.10;;;;;;5093754;28;20174;-61
2021/09/02 01:44:44;;;;;;;5.03;4.53;;;20.60;66.10;;;;;;5092742;28;20229;-61
2021/09/02 01:47:20;;;;;;;5.00;4.50;;;20.60;66.20;;;;;;5093437;28;20170;-61
2021/09/02 01:49:45;;;;;;;5.82;4.50;;;20.60;66.10;;;;;;5093287;28;20664;-61
2021/09/02 01:52:11;;;;;;;4.72;4.22;;;20.60;66.10;;;;;;5092788;28;20189;-61
2021/09/02 01:54:36;;;;;;;5.13;4.53;;;20.50;66.00;;;;;;5092993;28;20165;-62
2021/09/02 01:57:06;;;;;;;5.10;4.55;;;20.60;66.20;;;;;;5092188;28;20173;-61
2021/09/02 01:59:31;;;;;;;5.55;5.03;;;20.60;66.10;;;;;;5092153;28;20226;-61
2021/09/02 02:01:57;;;;;;;5.15;4.65;;;20.50;66.10;;;;;;5093468;28;20174;-61
2021/09/02 02:04:22;;;;;;;5.15;4.65;;;20.50;66.00;;;;;;5092436;28;20270;-61
2021/09/02 02:06:48;;;;;;;4.85;4.40;;;20.50;66.00;;;;;;5092401;28;20520;-61
2021/09/02 02:09:13;;;;;;;5.00;4.55;;;20.50;66.10;;;;;;5093089;28;20617;-61
2021/09/02 02:11:39;;;;;;;5.75;4.80;;;20.50;66.10;;;;;;5092820;28;20204;-60
2021/09/02 02:14:04;;;;;;;5.22;4.72;;;20.50;66.00;;;;;;5092162;28;20260;-60
2021/09/02 02:16:30;;;;;;;5.18;4.55;;;20.50;66.00;;;;;;5092683;28;20166;-60
2021/09/02 02:18:55;;;;;;;4.80;4.28;;;20.50;66.10;;;;;;5093009;28;20600;-60
2021/09/02 02:21:21;;;;;;;5.30;4.63;;;20.50;66.20;;;;;;5091565;28;20225;-61
2021/09/02 02:23:46;;;;;;;4.80;4.30;;;20.50;66.10;;;;;;5092947;28;20197;-60
2021/09/02 02:26:12;;;;;;;5.18;4.68;;;20.50;66.90;;;;;;5093016;28;20676;-61
2021/09/02 02:28:37;;;;;;;5.30;4.80;;;20.50;66.10;;;;;;5091651;28;20173;-60
2021/09/02 02:31:03;;;;;;;5.22;4.72;;;20.50;66.20;;;;;;5093056;28;20493;-60
2021/09/02 02:33:28;;;;;;;5.13;4.65;;;20.50;66.20;;;;;;5091765;28;20294;-61
2021/09/02 02:35:54;;;;;;;4.53;4.13;;;20.50;66.20;;;;;;5092274;28;20246;-61
2021/09/02 02:38:20;;;;;;;5.00;4.50;;;20.50;66.20;;;;;;5092254;28;20166;-61
2021/09/02 02:40:45;;;;;;;5.88;5.05;;;20.50;66.20;;;;;;5091737;28;20178;-61
2021/09/02 02:43:13;;;;;;;5.18;4.68;;;20.50;66.20;;;;;;5092341;28;20216;-61
2021/09/02 02:45:38;;;;;;;5.65;5.18;;;20.50;66.20;;;;;;5091919;28;20237;-61
2021/09/02 02:48:04;;;;;;;5.18;4.68;;;20.50;66.20;;;;;;5091797;28;20204;-61
2021/09/02 02:50:30;;;;;;;5.10;4.63;;;20.50;66.20;;;;;;5092097;28;20178;-61
2021/09/02 02:52:55;;;;;;;5.47;4.38;;;20.50;66.20;;;;;;5092528;28;20182;-61
2021/09/02 02:55:21;;;;;;;5.30;4.40;;;20.50;66.20;;;;;;5091261;28;20554;-61
2021/09/02 02:57:46;;;;;;;4.80;4.40;;;20.50;66.20;;;;;;5092388;28;20169;-61
2021/09/02 03:00:12;;;;;;;4.85;4.35;;;20.50;66.20;;;;;;5092152;28;20584;-61
2021/09/02 03:02:37;;;;;;;5.07;4.57;;;20.50;66.20;;;;;;5091351;28;20212;-61
2021/09/02 03:05:04;;;;;;;5.05;4.55;;;20.50;66.30;;;;;;5092241;28;20695;-61
2021/09/02 03:07:29;;;;;;;4.82;4.43;;;20.50;66.20;;;;;;5091843;28;20231;-61
2021/09/02 03:09:55;;;;;;;5.32;4.28;;;20.40;66.20;;;;;;5091417;28;20308;-61
2021/09/02 03:12:20;;;;;;;5.63;5.03;;;20.50;66.30;;;;;;5091947;28;20699;-60
2021/09/02 03:14:46;;;;;;;4.55;4.22;;;20.50;66.30;;;;;;5092275;28;20196;-61
2021/09/02 03:17:11;;;;;;;4.93;4.20;;;20.50;66.30;;;;;;5095669;28;20185;-60
2021/09/02 03:19:37;;;;;;;4.75;4.35;;;20.50;66.30;;;;;;5095691;28;20217;-61
2021/09/02 03:22:03;;;;;;;5.13;4.60;;;20.50;66.30;;;;;;5096170;28;20169;-60
2021/09/02 03:24:28;;;;;;;5.38;4.88;;;20.40;66.30;;;;;;5095187;28;20205;-60
2021/09/02 03:26:54;;;;;;;5.13;4.70;;;20.40;66.30;;;;;;5096062;28;20219;-61
2021/09/02 03:29:19;;;;;;;5.88;4.88;;;20.40;66.30;;;;;;5096077;28;20182;-60
2021/09/02 03:31:45;;;;;;;5.05;4.65;;;20.40;66.30;;;;;;5095324;28;20632;-61
2021/09/02 03:34:10;;;;;;;5.15;4.65;;;20.40;66.30;;;;;;5096064;28;20174;-61
2021/09/02 03:36:38;;;;;;;5.30;4.70;;;20.50;66.40;;;;;;5095464;28;20182;-61
2021/09/02 03:39:04;;;;;;;5.13;4.68;;;20.40;66.30;;;;;;5095900;28;20623;-62
2021/09/02 03:41:29;;;;;;;5.00;4.60;;;20.40;66.30;;;;;;5095523;28;20178;-60
2021/09/02 03:43:55;;;;;;;4.82;4.43;;;20.40;66.30;;;;;;5095263;28;20173;-61
2021/09/02 03:46:20;;;;;;;5.05;4.55;;;20.40;66.30;;;;;;5095337;28;20657;-60
2021/09/02 03:48:46;;;;;;;5.30;4.80;;;20.40;66.30;;;;;;5096005;28;20170;-61
2021/09/02 03:51:11;;;;;;;5.82;5.25;;;20.40;66.30;;;;;;5095259;28;20181;-61
2021/09/02 03:53:37;;;;;;;6.10;4.90;;;20.40;66.30;;;;;;5095435;28;20170;-61
2021/09/02 03:56:03;;;;;;;4.78;4.38;;;20.40;67.20;;;;;;5095692;28;20166;-61
2021/09/02 03:58:28;;;;;;;4.95;4.55;;;20.40;66.40;;;;;;5094451;28;20655;-60
2021/09/02 04:00:53;;;;;;;5.47;4.72;;;20.40;66.30;;;;;;5095665;28;20166;-61
2021/09/02 04:03:19;;;;;;;4.72;4.32;;;20.40;66.40;;;;;;5095478;28;20548;-61
2021/09/02 04:05:44;;;;;;;5.65;4.57;;;20.40;66.40;;;;;;5094634;28;20212;-61
2021/09/02 04:08:10;;;;;;;5.88;4.80;;;20.40;66.40;;;;;;5095471;28;20170;-61
2021/09/02 04:10:35;;;;;;;4.70;4.30;;;20.40;66.40;;;;;;5095133;28;20219;-60
2021/09/02 04:13:01;;;;;;;5.35;4.85;;;20.40;66.40;;;;;;5094477;28;20215;-61
2021/09/02 04:15:26;;;;;;;5.53;4.85;;;20.40;66.40;;;;;;5095214;28;20173;-60
2021/09/02 04:17:52;;;;;;;4.85;4.38;;;20.40;66.40;;;;;;5095247;28;20619;-60
2021/09/02 04:20:18;;;;;;;5.22;4.40;;;20.40;66.40;;;;;;5094425;28;20233;-61
2021/09/02 04:22:43;;;;;;;5.60;5.10;;;20.40;66.40;;;;;;5094991;28;20192;-60
2021/09/02 04:25:09;;;;;;;5.30;4.90;;;20.40;66.40;;;;;;5095071;28;20296;-60
2021/09/02 04:27:34;;;;;;;5.75;5.25;;;20.40;66.40;;;;;;5093601;28;20177;-61
2021/09/02 04:30:00;;;;;;;5.78;4.50;;;20.40;66.40;;;;;;5095206;28;20180;-61
2021/09/02 04:32:26;;;;;;;5.07;4.55;;;20.30;66.40;;;;;;5094854;28;20177;-61
2021/09/02 04:34:51;;;;;;;4.97;4.22;;;20.40;66.40;;;;;;5094380;28;20186;-61
2021/09/02 04:37:17;;;;;;;5.32;4.82;;;20.40;66.40;;;;;;5094900;28;20174;-61
2021/09/02 04:39:42;;;;;;;6.38;4.75;;;20.40;66.50;;;;;;5094575;28;20644;-61
2021/09/02 04:42:08;;;;;;;5.00;4.57;;;20.40;66.40;;;;;;5094012;28;20205;-60
2021/09/02 04:44:33;;;;;;;5.05;4.55;;;20.40;66.50;;;;;;5094512;28;20300;-61
2021/09/02 04:47:01;;;;;;;4.75;4.25;;;20.40;66.50;;;;;;5093957;28;20166;-61
2021/09/02 04:49:27;;;;;;;5.00;4.60;;;20.40;66.50;;;;;;5094497;28;20169;-61
2021/09/02 04:51:52;;;;;;;4.85;4.45;;;20.40;66.50;;;;;;5094639;28;20176;-61
2021/09/02 04:54:18;;;;;;;5.05;4.38;;;20.40;66.50;;;;;;5093951;28;20170;-60
2021/09/02 04:56:43;;;;;;;4.85;4.45;;;20.40;66.50;;;;;;5094213;28;20188;-61
2021/09/02 04:59:09;;;;;;;5.00;4.60;;;20.40;66.50;;;;;;5094498;28;20624;-60
2021/09/02 05:01:34;;;;;;;6.82;4.60;;;20.40;66.50;;;;;;5093577;28;20178;-61
2021/09/02 05:04:00;;;;;;;5.00;4.50;;;20.40;66.50;;;;;;5094483;28;20180;-61
2021/09/02 05:06:28;;;;;;;4.93;4.18;;;20.30;66.40;;;;;;5094021;28;20216;-61
2021/09/02 05:08:54;;;;;;;4.95;4.50;;;20.50;66.60;;;;;;5093715;28;20173;-61
2021/09/02 05:11:19;;;;;;;4.82;4.28;;;20.30;66.40;;;;;;5094128;28;20178;-60
2021/09/02 05:13:45;;;;;;;5.43;4.38;;;20.40;66.50;;;;;;5094114;28;20166;-60
2021/09/02 05:16:10;;;;;;;4.93;4.53;;;20.40;66.50;;;;;;5093698;28;20174;-60
2021/09/02 05:18:36;;;;;;;5.50;4.20;;;20.30;66.40;;;;;;5093687;28;20611;-60
2021/09/02 05:21:01;;;;;;;4.47;4.07;;;20.40;66.50;;;;;;5093898;28;20327;-61
2021/09/02 05:23:27;;;;;;;5.65;4.57;;;20.40;66.50;;;;;;5092955;28;20201;-60
2021/09/02 05:25:52;;;;;;;5.22;4.72;;;20.30;66.40;;;;;;5093843;28;20296;-60
2021/09/02 05:28:18;;;;;;;4.80;4.30;;;20.40;66.50;;;;;;5094076;28;20202;-60
2021/09/02 05:30:43;;;;;;;4.78;4.38;;;20.40;66.50;;;;;;5092986;28;20286;-60
2021/09/02 05:33:12;;;;;;;5.03;4.53;;;20.40;66.40;;;;;;5093782;28;20234;-61
2021/09/02 05:35:37;;;;;;;4.30;3.90;;;20.40;66.40;;;;;;5093548;28;20260;-61
2021/09/02 05:38:03;;;;;;;4.45;4.05;;;20.30;66.30;;;;;;5092145;28;20170;-62
2021/09/02 05:40:28;;;;;;;4.97;4.47;;;20.40;66.40;;;;;;5093339;28;20178;-60
2021/09/02 05:42:54;;;;;;;4.53;4.10;;;20.40;66.40;;;;;;5093843;28;20701;-61
2021/09/02 05:45:19;;;;;;;4.82;4.43;;;20.30;66.30;;;;;;5092827;28;20209;-60
2021/09/02 05:47:45;;;;;;;4.38;4.03;;;20.40;66.40;;;;;;5093568;28;20201;-60
2021/09/02 05:50:10;;;;;;;4.90;4.38;;;20.40;66.40;;;;;;5093719;28;20177;-60
2021/09/02 05:52:36;;;;;;;5.88;4.03;;;20.40;66.40;;;;;;5092425;28;20174;-61
2021/09/02 05:55:02;;;;;;;4.40;4.00;;;20.40;66.30;;;;;;5093427;28;20655;-61
2021/09/02 05:57:27;;;;;;;4.80;4.30;;;20.40;66.30;;;;;;5092550;28;20227;-61
2021/09/02 05:59:53;;;;;;;4.85;4.45;;;20.40;66.30;;;;;;5093563;28;20257;-61
2021/09/02 06:02:18;;;;;;;5.43;3.95;;;20.40;66.30;;;;;;5093437;28;20205;-61
2021/09/02 06:04:44;;;;;;;4.25;3.78;;;20.40;66.30;;;;;;5092207;28;20288;-61
2021/09/02 06:07:09;;;;;;;4.47;4.07;;;20.40;66.30;;;;;;5093189;28;20173;-61
2021/09/02 06:09:35;;;;;;;4.28;3.88;;;20.40;66.30;;;;;;5092871;28;20200;-61
2021/09/02 06:12:00;;;;;;;3.97;3.58;;;20.40;66.20;;;;;;5092374;28;20701;-61
2021/09/02 06:14:26;;;;;;;3.85;3.45;;;20.40;66.20;;;;;;5092769;28;20182;-60
2021/09/02 06:16:51;;;;;;;4.93;4.07;;;20.40;66.20;;;;;;5092941;28;20258;-61
2021/09/02 06:19:17;;;;;;;4.05;3.70;;;20.40;66.20;;;;;;5092023;28;20311;-62
2021/09/02 06:21:42;;;;;;;3.92;3.63;;;20.50;66.30;;;;;;5092648;28;20188;-61
2021/09/02 06:24:08;;;;;;;4.43;4.03;;;20.50;66.20;;;;;;5092673;28;20200;-60
2021/09/02 06:26:34;;;;;;;4.57;4.13;;;20.50;66.30;;;;;;5091960;28;20197;-61
2021/09/02 06:29:00;;;;;;;4.38;4.05;;;20.50;66.10;;;;;;5093010;28;20166;-61
2021/09/02 06:31:25;;;;;;;4.07;3.45;;;20.50;66.00;;;;;;5092505;28;20169;-61
2021/09/02 06:33:51;;;;;;;5.90;3.90;;;20.50;66.00;;;;;;5092166;28;20614;-61
2021/09/02 06:36:19;;;;;;;4.82;3.90;;;20.50;65.90;;;;;;5092813;28;20666;-61
2021/09/02 06:38:44;;;;;;;4.28;3.88;;;20.60;66.20;;;;;;5092370;28;20185;-62
2021/09/02 06:41:10;;;;;;;3.75;3.42;;;20.60;66.20;;;;;;5091978;28;20575;-61
2021/09/02 06:43:35;;;;;;;4.18;3.78;;;20.60;66.10;;;;;;5092414;28;20223;-61
2021/09/02 06:46:01;;;;;;;5.13;3.38;;;20.60;66.00;;;;;;5092662;28;20298;-62
2021/09/02 06:48:26;;;;;;;5.78;3.70;;;20.60;66.00;;;;;;5091681;28;20170;-61
2021/09/02 06:50:52;;;;;;;5.55;4.10;;;20.60;65.90;;;;;;5092277;28;20178;-62
2021/09/02 06:53:17;;;;;;;3.67;3.38;;;20.60;65.90;;;;;;5092355;28;20662;-62
2021/09/02 06:55:43;;;;;;;7.43;4.05;;;20.60;65.80;;;;;;5091301;28;20169;-62
2021/09/02 06:58:11;;;;;;;5.13;4.25;;;20.70;65.80;;;;;;5092685;28;20180;-62
2021/09/02 07:00:37;;;;;;;5.32;3.80;;;20.70;65.80;;;;;;5091539;28;20268;-63
2021/09/02 07:03:02;;;;;;;5.10;3.88;;;20.70;65.70;;;;;;5092333;28;20299;-63
2021/09/02 07:05:28;;;;;;;4.40;3.53;;;20.80;65.80;;;;;;5091949;28;20209;-63
2021/09/02 07:07:54;;;;;;;3.95;3.03;;;20.80;65.70;;;;;;5091553;28;20174;-63
2021/09/02 07:10:20;;;;;;;6.65;4.00;;;20.80;65.70;;;;;;5091944;28;20529;-62
2021/09/02 07:12:45;;;;;;;6.38;3.63;;;20.90;65.70;;;;;;5092494;28;20170;-61
2021/09/02 07:15:11;;;;;;;5.38;3.92;;;20.90;65.70;;;;;;5091839;28;20173;-61
2021/09/02 07:17:36;;;;;;;4.07;3.42;;;20.90;65.60;;;;;;5091986;28;20181;-62
2021/09/02 07:20:02;;;;;;;6.55;3.63;;;20.90;65.60;;;;;;5092085;28;20221;-62
2021/09/02 07:22:28;;;;;;;7.35;4.35;;;20.90;65.70;;;;;;5089849;28;20170;-61
2021/09/02 07:24:53;;;;;;;5.03;3.78;;;20.90;65.50;;;;;;5090608;28;20204;-61
2021/09/02 07:27:19;;;;;;;5.10;3.58;;;21.00;65.50;;;;;;5090935;28;20170;-61
2021/09/02 07:29:44;;;;;;;7.28;4.18;;;21.00;65.50;;;;;;5090147;28;20176;-62
2021/09/02 07:32:10;;;;;;;8.70;4.53;;;21.00;65.50;;;;;;5090912;28;20162;-62
2021/09/02 07:34:35;;;;;;;5.72;3.42;;;21.00;65.50;;;;;;5090669;28;20251;-62
2021/09/02 07:37:01;;;;;;;7.03;3.45;;;21.00;65.60;;;;;;5089868;28;20214;-61
2021/09/02 07:39:27;;;;;;;5.43;3.83;;;21.10;65.60;;;;;;5090632;28;20270;-60
2021/09/02 07:41:52;;;;;;;6.75;3.65;;;21.10;65.60;;;;;;5090751;28;20169;-60
2021/09/02 07:44:18;;;;;;;5.97;3.70;;;21.10;65.60;;;;;;5089573;28;20523;-61
2021/09/02 07:46:43;;;;;;;6.63;4.00;;;21.10;65.60;;;;;;5090218;28;20613;-62
2021/09/02 07:49:09;;;;;;;5.43;3.72;;;21.20;65.70;;;;;;5090680;28;20192;-61
2021/09/02 07:51:34;;;;;;;5.28;3.80;;;21.20;65.70;;;;;;5089411;28;20166;-61
2021/09/02 07:54:00;;;;;;;5.70;3.67;;;21.20;65.70;;;;;;5090791;28;20189;-60
2021/09/02 07:56:25;;;;;;;9.55;3.88;;;21.20;65.70;;;;;;5090995;28;20166;-60
2021/09/02 07:58:51;;;;;;;6.60;4.03;;;21.20;65.70;;;;;;5091207;28;20173;-61
2021/09/02 08:01:22;;;;;;;5.40;3.72;;;21.20;65.70;;;;;;5092474;28;20174;-61
2021/09/02 08:03:47;;;;;;;4.57;3.70;;;21.30;65.80;;;;;;5095763;28;20182;-61
2021/09/02 08:06:13;;;;;;;6.20;3.67;;;21.30;65.80;;;;;;5094560;28;20309;-60
2021/09/02 08:08:38;;;;;;;4.93;3.35;;;21.30;65.70;;;;;;5095468;28;20549;-61
2021/09/02 08:11:07;;;;;;;5.55;3.60;;;21.30;65.70;;;;;;5094984;28;20604;-61
2021/09/02 08:13:32;;;;;;;4.00;3.50;;;21.40;65.80;;;;;;5095004;28;20178;-60
2021/09/02 08:15:58;;;;;;;5.13;3.28;;;21.40;65.70;;;;;;5095196;28;20532;-63
2021/09/02 08:18:26;;;;;;;5.32;3.65;;;21.40;65.60;;;;;;5094259;28;20636;-61
2021/09/02 08:20:52;;;;;;;6.35;3.90;;;21.40;65.70;;;;;;5094887;28;20225;-61
2021/09/02 08:23:17;;;;;;;4.50;3.47;;;21.40;65.60;;;;;;5095176;28;20491;-60
2021/09/02 08:25:43;;;;;;;5.22;3.47;;;21.50;65.80;;;;;;5102998;28;20334;-60
2021/09/02 08:28:09;;;;;;;10.90;4.30;;;21.50;65.70;;;;;;5109029;28;20223;-60
2021/09/02 08:30:34;;;;;;;5.32;3.67;;;21.50;65.70;;;;;;5104189;28;20186;-60
2021/09/02 08:33:00;;;;;;;4.85;3.60;;;21.50;65.80;;;;;;5113110;28;20531;-61
2021/09/02 08:35:30;;;;;;;3.80;3.40;;;21.50;65.70;;;;;;5114746;28;20176;-60
2021/09/02 08:38:00;;;;;;;5.53;3.67;;;21.50;65.50;;;;;;5115684;27;20165;-61
2021/09/02 08:40:28;;;;;;;4.20;3.40;;;21.50;65.70;;;;;;5104796;28;20181;-60
2021/09/02 08:42:54;;;;;;;5.00;3.70;;;21.50;65.50;;;;;;5094965;28;20174;-60
2021/09/02 08:45:24;;;;;;;5.93;3.28;;;21.50;65.60;;;;;;5094749;28;20214;-61
2021/09/02 08:47:49;;;;;;;4.57;3.30;;;21.60;65.50;;;;;;5094251;28;20264;-61
2021/09/02 08:50:16;;;;;;;3.38;3.03;;;21.60;65.40;;;;;;5094874;28;20280;-59
2021/09/02 08:52:42;;;;;;;6.15;3.05;;;21.60;65.40;;;;;;5094170;28;20265;-58
2021/09/02 08:55:08;;;;;;;3.40;3.10;;;21.70;65.30;;;;;;5093990;28;20221;-58
2021/09/02 08:57:34;;;;;;;3.97;2.90;;;21.70;65.30;;;;;;5104074;28;20623;-60
2021/09/02 08:59:59;;;;;;;5.07;3.83;;;21.70;65.30;;;;;;5114736;28;20178;-60
2021/09/02 09:02:29;;;;;;;3.53;3.00;;;21.80;65.40;;;;;;5113701;28;20169;-58
2021/09/02 09:05:06;;;;;;;3.40;2.80;;;21.80;65.40;;;;;;5115093;28;20234;-58
2021/09/02 09:07:38;;;;;;;3.90;3.45;;;21.80;65.50;;;;;;5112577;28;20972;-58
2021/09/02 09:10:09;;;;;;;4.53;3.10;;;21.80;65.40;;;;;;5114653;28;20631;-59
2021/09/02 09:12:40;;;;;;;3.83;3.17;;;21.80;65.50;;;;;;5113589;28;20256;-58
2021/09/02 09:15:07;;;;;;;3.25;2.95;;;21.80;65.40;;;;;;5114042;28;20177;-58
2021/09/02 09:17:32;;;;;;;4.82;3.42;;;21.80;65.30;;;;;;5113936;28;20181;-60
2021/09/02 09:19:58;;;;;;;3.80;3.13;;;21.90;65.80;;;;;;5114348;28;20225;-58
2021/09/02 09:22:27;;;;;;;4.72;3.13;;;21.90;65.20;;;;;;5113575;27;20169;-59
2021/09/02 09:24:57;;;;;;;5.07;2.90;;;21.90;65.10;;;;;;5114664;28;20221;-62
2021/09/02 09:27:23;;;;;;;6.53;3.00;;;22.00;65.20;;;;;;5114069;28;20259;-58
2021/09/02 09:30:20;;;;;;;4.97;3.33;;;22.00;65.10;;;;;;5096517;28;20716;-58
2021/09/02 09:33:03;;;;;;;4.32;3.22;;;22.00;65.20;;;;;;5095662;28;20628;-59
2021/09/02 09:35:32;;;;;;;3.90;3.50;;;22.00;65.20;;;;;;5090585;28;20170;-61
2021/09/02 09:38:07;;;;;;;4.93;3.75;;;21.90;65.40;;;;;;5093423;28;20256;-62
2021/09/02 09:40:34;;;;;;;4.03;3.65;;;22.00;65.40;;;;;;5093561;28;20176;-64
2021/09/02 09:43:10;;;;;;;3.83;3.33;;;22.00;65.40;;;;;;5092929;28;20170;-59
2021/09/02 09:45:55;;;;;;;6.25;3.50;;;22.00;65.40;;;;;;5093222;28;20612;-59
2021/09/02 09:48:50;;;;;;;4.50;2.75;;;22.00;65.40;;;;;;5093075;28;20239;-60
2021/09/02 09:51:20;;;;;;;4.80;2.92;;;22.10;65.40;;;;;;5087790;28;20268;-64
2021/09/02 09:53:54;;;;;;;5.70;3.28;;;22.10;65.30;;;;;;5093397;28;20169;-65
2021/09/02 09:56:22;;;;;;;3.92;3.45;;;22.20;65.10;;;;;;5093196;28;20165;-66
2021/09/02 09:58:48;;;;;;;5.70;3.25;;;22.20;65.00;;;;;;5092909;28;20265;-67
2021/09/02 10:01:14;;;;;;;5.10;3.17;;;22.20;64.80;;;;;;5093486;28;20264;-65
2021/09/02 10:03:40;;;;;;;9.32;3.75;;;22.20;64.80;;;;;;5092136;28;20173;-66
2021/09/02 10:06:07;;;;;;;4.95;3.67;;;22.20;64.80;;;;;;5093215;28;20243;-65
2021/09/02 10:08:38;;;;;;;4.95;3.15;;;22.30;64.70;;;;;;5092796;28;20265;-65
2021/09/02 10:11:05;;;;;;;5.65;3.50;;;22.30;64.70;;;;;;5091823;28;20181;-67
2021/09/02 10:13:31;;;;;;;5.22;3.50;;;22.20;64.90;;;;;;5091986;28;20223;-66
2021/09/02 10:15:57;;;;;;;4.80;3.40;;;22.20;64.90;;;;;;5092226;28;20170;-67
2021/09/02 10:18:22;;;;;;;8.77;3.90;;;22.20;64.80;;;;;;5088922;28;20177;-58
2021/09/02 10:20:48;;;;;;;5.32;3.60;;;22.20;64.70;;;;;;5091506;28;20233;-58
2021/09/02 10:23:14;;;;;;;6.03;3.75;;;22.20;64.60;;;;;;5092819;28;20181;-58
2021/09/02 10:25:40;;;;;;;6.07;3.60;;;22.30;64.40;;;;;;5089859;28;20213;-59
2021/09/02 10:28:08;;;;;;;6.13;3.10;;;22.30;64.30;;;;;;5092860;28;20181;-58
2021/09/02 10:30:46;;;;;;;5.18;3.28;;;22.30;64.20;;;;;;5092883;28;20181;-61
2021/09/02 10:33:45;;;;;;;4.78;3.25;;;22.40;64.10;;;;;;5112514;28;20179;-61
2021/09/02 10:36:15;;;;;;;4.53;3.47;;;22.40;64.10;;;;;;5112991;27;20248;-64
2021/09/02 10:38:50;;;;;;;5.68;3.60;;;22.40;64.10;;;;;;5112097;28;20180;-64
2021/09/02 10:41:34;;;;;;;5.28;3.58;;;22.40;64.00;;;;;;5113021;28;20275;-64
2021/09/02 10:44:00;;;;;;;8.75;3.53;;;22.50;63.90;;;;;;5113013;28;20187;-64
2021/09/02 10:46:36;;;;;;;6.72;4.00;;;22.50;63.80;;;;;;5111814;28;20177;-64
2021/09/02 10:49:11;;;;;;;5.00;3.47;;;22.50;63.80;;;;;;5113097;28;20180;-60
2021/09/02 10:51:38;;;;;;;7.45;3.67;;;22.50;63.70;;;;;;5112669;28;20264;-60
2021/09/02 10:54:08;;;;;;;4.40;3.60;;;22.50;63.70;;;;;;5112221;28;20173;-59
2021/09/02 10:56:50;;;;;;;6.65;3.95;;;22.50;63.70;;;;;;5112422;28;20192;-60
2021/09/02 10:59:36;;;;;;;4.85;3.90;;;22.50;63.60;;;;;;5112708;28;20203;-60
2021/09/02 11:02:02;;;;;;;6.93;3.15;;;22.50;63.50;;;;;;5112042;28;20180;-60
2021/09/02 11:04:27;;;;;;;4.80;3.20;;;22.50;63.50;;;;;;5111286;28;20205;-60
2021/09/02 11:06:54;;;;;;;4.63;3.47;;;22.50;63.50;;;;;;5110496;28;20531;-60
2021/09/02 11:09:29;;;;;;;6.38;3.75;;;22.50;63.60;;;;;;5112642;28;20252;-60
2021/09/02 11:11:55;;;;;;;5.20;3.45;;;22.50;63.50;;;;;;5112469;28;20165;-59
2021/09/02 11:14:20;;;;;;;4.22;3.22;;;22.50;63.40;;;;;;5111816;28;20268;-59
2021/09/02 11:16:46;;;;;;;5.30;3.30;;;22.50;63.40;;;;;;5112628;28;20256;-60
2021/09/02 11:19:11;;;;;;;5.97;3.75;;;22.60;63.30;;;;;;5112706;28;20172;-60
2021/09/02 11:21:37;;;;;;;5.30;3.67;;;22.50;63.20;;;;;;5111398;28;20270;-59
2021/09/02 11:24:06;;;;;;;7.88;3.65;;;22.60;63.20;;;;;;5112579;28;20313;-60
2021/09/02 11:26:37;;;;;;;3.97;3.35;;;22.60;63.10;;;;;;5112269;28;20181;-59
2021/09/02 11:29:03;;;;;;;4.88;3.30;;;22.50;63.00;;;;;;5111868;28;20173;-60
2021/09/02 11:31:29;;;;;;;4.80;3.63;;;22.60;63.00;;;;;;5103919;28;20184;-60
2021/09/02 11:33:54;;;;;;;3.85;3.30;;;22.60;62.90;;;;;;5092129;28;20249;-60
2021/09/02 11:36:20;;;;;;;4.53;3.50;;;22.60;62.90;;;;;;5091733;28;20181;-60
2021/09/02 11:38:46;;;;;;;4.43;3.67;;;22.60;62.80;;;;;;5095966;28;20173;-60
2021/09/02 11:41:23;;;;;;;3.55;3.08;;;22.60;62.60;;;;;;5096298;28;20178;-60
2021/09/02 11:43:52;;;;;;;6.55;3.50;;;22.70;62.60;;;;;;5095675;28;20187;-60
2021/09/02 11:46:18;;;;;;;5.43;3.80;;;22.70;62.50;;;;;;5096090;28;20347;-60
2021/09/02 11:48:54;;;;;;;4.20;3.78;;;22.70;62.20;;;;;;5095864;28;20249;-60
2021/09/02 11:51:32;;;;;;;4.75;3.58;;;22.80;62.20;;;;;;5095531;28;20161;-59
2021/09/02 11:54:11;;;;;;;4.25;3.58;;;22.80;62.20;;;;;;5096163;28;20520;-59
2021/09/02 11:56:39;;;;;;;6.30;3.45;;;22.80;62.10;;;;;;5095047;28;20177;-60
2021/09/02 11:59:07;;;;;;;4.22;3.25;;;22.80;62.10;;;;;;5095765;28;20604;-60
2021/09/02 12:01:33;;;;;;;3.85;3.40;;;22.80;62.00;;;;;;5095433;28;20189;-60
2021/09/02 12:03:58;;;;;;;4.47;3.50;;;22.80;62.00;;;;;;5095148;28;20181;-60
2021/09/02 12:06:25;;;;;;;4.43;3.60;;;22.80;62.00;;;;;;5095530;28;20190;-60
2021/09/02 12:08:51;;;;;;;3.58;3.28;;;22.80;62.00;;;;;;5094457;28;20173;-60
2021/09/02 12:11:20;;;;;;;5.38;3.80;;;22.70;62.10;;;;;;5093642;28;20545;-59
2021/09/02 12:13:45;;;;;;;4.13;3.47;;;22.70;62.10;;;;;;5094391;28;20169;-60
2021/09/02 12:16:12;;;;;;;4.53;3.67;;;22.80;62.20;;;;;;5095378;28;20177;-59
2021/09/02 12:18:42;;;;;;;3.30;3.00;;;22.80;62.00;;;;;;5094287;28;20470;-60
2021/09/02 12:21:12;;;;;;;3.95;3.47;;;22.80;61.90;;;;;;5095188;28;20221;-60
2021/09/02 12:23:45;;;;;;;4.63;3.70;;;22.80;61.90;;;;;;5094956;28;20170;-59
2021/09/02 12:26:11;;;;;;;5.45;3.58;;;22.80;61.90;;;;;;5094376;28;20217;-59
2021/09/02 12:28:40;;;;;;;3.83;3.55;;;22.80;61.90;;;;;;5094846;28;20508;-59
2021/09/02 12:31:13;;;;;;;4.60;3.63;;;22.80;61.80;;;;;;5100005;28;20567;-59
2021/09/02 12:34:13;;;;;;;4.57;3.40;;;22.90;61.80;;;;;;5115387;28;20252;-63
2021/09/02 12:36:42;;;;;;;4.60;3.75;;;22.90;61.70;;;;;;5104490;28;20274;-60
2021/09/02 12:39:12;;;;;;;4.07;3.40;;;22.90;61.70;;;;;;5114870;28;20176;-60
2021/09/02 12:41:45;;;;;;;4.20;3.80;;;22.90;61.60;;;;;;5115224;28;20180;-60
2021/09/02 12:44:13;;;;;;;3.45;3.15;;;22.90;61.60;;;;;;5115371;28;20173;-60
2021/09/02 12:47:03;;;;;;;4.70;3.58;;;22.90;61.40;;;;;;5114315;28;20185;-61